الصفحة الرئيسية
METAR-TAF:

METAR-TAF

مطار :

Linguère, السنغال

دائرة عرض: 15-23N, خط طول: 015-07W, ارتفاع: 20 متر

مراقبة الطقس الحالي

تاريخ ووقت الإصدار 1ساعة و 13 دقيقة قبل الساعة 07:00UTC
ريح 6 عقدة من الشرق
درجة الحرارة 26°درجة مئوية
الرطوبة 24%
ضغط 1010 hPa
الرؤية: 8000 متر

METAR: GOOG 160700Z 08006KT 8000 NSC 26/04 Q1010

زمن: 08:13 (08:13 UTC)


TAF: مفقودة

أرصاد الطقس والتوقعات من أكثر من 4000 مطار (تقارير الطقس للمطار METAR والتنبؤ بالطقس بالمطارTAF).

المحطات المتاحة هي النقط الصفراء والحمراء على الخريطة.

حرك المؤشر فوق النقطة لمعرفة اسم المحطة.

ثم انقر لمعرفة أرصاد وتوقعات الطقس.

لتغيير الخارطة: اضغط على الأزرار الخضراء مع رمز الصليب الأسود للتكبير. على الزر الأخضر مع شرطة للتصغير، أو على الأسهم الخضراء للخرائط المجاورة.


METAR-TAF: